createdAt,value
2018-08-03T00:03:21.813Z,23.40
2018-08-03T00:06:25.451Z,23.30
2018-08-03T00:09:29.171Z,23.30
2018-08-03T00:12:32.816Z,23.30
2018-08-03T00:15:36.418Z,23.30
2018-08-03T00:18:40.225Z,23.30
2018-08-03T00:21:43.943Z,23.20
2018-08-03T00:27:50.947Z,23.20
2018-08-03T00:37:01.458Z,23.10
2018-08-03T00:40:05.111Z,23.10
2018-08-03T00:43:08.743Z,23.10
2018-08-03T00:46:12.338Z,23.10
2018-08-03T00:52:19.458Z,23.00
2018-08-03T00:58:26.562Z,22.90
2018-08-03T01:01:30.246Z,22.90
2018-08-03T01:07:37.203Z,22.70
2018-08-03T01:10:40.808Z,22.60
2018-08-03T01:13:44.433Z,22.60
2018-08-03T01:16:48.047Z,22.60
2018-08-03T01:19:51.659Z,22.50
2018-08-03T01:25:58.617Z,22.50
2018-08-03T01:29:02.423Z,22.40
2018-08-03T01:32:06.056Z,22.40
2018-08-03T01:38:13.051Z,22.30
2018-08-03T01:41:16.657Z,22.30
2018-08-03T01:44:20.276Z,22.30
2018-08-03T01:47:23.895Z,22.30
2018-08-03T01:50:27.729Z,22.30
2018-08-03T01:53:31.326Z,22.30
2018-08-03T01:56:35.127Z,22.30
2018-08-03T01:59:38.734Z,22.40
2018-08-03T02:02:42.363Z,22.30
2018-08-03T02:05:45.962Z,22.40
2018-08-03T02:08:50.249Z,22.40
2018-08-03T02:11:53.833Z,22.40
2018-08-03T02:14:57.457Z,22.40
2018-08-03T02:18:01.065Z,22.50
2018-08-03T02:21:04.705Z,22.50
2018-08-03T02:27:11.702Z,22.50
2018-08-03T02:34:22.575Z,22.60
2018-08-03T02:37:26.208Z,22.60
2018-08-03T02:43:33.293Z,22.60
2018-08-03T02:46:37.068Z,22.60
2018-08-03T02:49:40.799Z,22.60
2018-08-03T02:52:44.414Z,22.60
2018-08-03T02:55:48.051Z,22.60
2018-08-03T02:58:51.852Z,22.60
2018-08-03T03:01:55.452Z,22.60
2018-08-03T03:04:59.288Z,22.60
2018-08-03T03:08:02.898Z,22.60
2018-08-03T03:11:06.574Z,22.60
2018-08-03T03:14:10.198Z,22.60
2018-08-03T03:17:13.810Z,22.60
2018-08-03T03:20:17.443Z,22.60
2018-08-03T03:23:21.051Z,22.60
2018-08-03T03:29:28.042Z,22.60
2018-08-03T03:32:31.698Z,22.60
2018-08-03T03:35:35.437Z,22.50
2018-08-03T03:38:39.061Z,22.50
2018-08-03T03:44:46.278Z,22.50
2018-08-03T03:47:49.905Z,22.50
2018-08-03T03:50:53.656Z,22.40
2018-08-03T03:53:57.264Z,22.30
2018-08-03T03:57:00.869Z,22.30
2018-08-03T04:03:08.580Z,22.20
2018-08-03T04:06:12.187Z,22.10
2018-08-03T04:09:15.847Z,22.00
2018-08-03T04:12:19.474Z,21.90
2018-08-03T04:15:23.105Z,21.80
2018-08-03T04:18:26.732Z,21.80
2018-08-03T04:21:30.361Z,21.80
2018-08-03T04:24:33.972Z,21.80
2018-08-03T04:27:37.611Z,21.90
2018-08-03T04:33:45.031Z,21.90
2018-08-03T04:39:52.266Z,22.00
2018-08-03T04:42:55.976Z,22.00
2018-08-03T04:45:59.597Z,22.00
2018-08-03T04:49:03.230Z,22.10
2018-08-03T04:55:10.205Z,22.20
2018-08-03T04:58:13.853Z,22.50
2018-08-03T05:01:17.473Z,23.10
2018-08-03T05:04:21.076Z,23.50
2018-08-03T05:07:25.046Z,24.00
2018-08-03T05:13:31.995Z,25.50
2018-08-03T05:16:35.694Z,26.00
2018-08-03T05:19:39.305Z,26.10
2018-08-03T05:22:43.113Z,26.60
2018-08-03T05:25:47.222Z,26.70
2018-08-03T05:28:50.944Z,26.10
2018-08-03T05:31:54.551Z,25.90
2018-08-03T05:34:58.163Z,26.20
2018-08-03T05:38:01.822Z,26.70
2018-08-03T05:41:05.443Z,26.60
2018-08-03T05:44:09.241Z,27.10
2018-08-03T05:47:12.845Z,26.90
2018-08-03T05:50:16.532Z,26.30
2018-08-03T05:56:23.592Z,27.40
2018-08-03T05:59:27.213Z,28.00
2018-08-03T06:02:30.950Z,26.80
2018-08-03T06:05:34.582Z,27.20
2018-08-03T06:08:38.231Z,26.90
2018-08-03T06:11:41.920Z,27.10
2018-08-03T06:14:45.550Z,27.80
2018-08-03T06:17:49.162Z,28.50
2018-08-03T06:20:52.820Z,28.50
2018-08-03T06:23:56.558Z,29.10
2018-08-03T06:27:00.524Z,29.40
2018-08-03T06:30:05.064Z,29.10
2018-08-03T06:36:12.255Z,29.40
2018-08-03T06:39:15.880Z,29.60
2018-08-03T06:42:19.660Z,29.80
2018-08-03T06:45:23.493Z,29.70
2018-08-03T06:48:27.211Z,29.70
2018-08-03T06:54:34.510Z,29.90
2018-08-03T06:57:38.147Z,29.50
2018-08-03T07:00:41.779Z,29.60
2018-08-03T07:06:48.841Z,30.00
2018-08-03T07:09:52.462Z,30.50
2018-08-03T07:12:56.101Z,30.70
2018-08-03T07:15:59.717Z,30.90
2018-08-03T07:19:03.550Z,30.60
2018-08-03T07:23:10.466Z,31.20
2018-08-03T07:29:17.731Z,31.40
2018-08-03T07:32:21.353Z,31.10
2018-08-03T07:35:25.057Z,31.00
2018-08-03T07:38:28.730Z,31.30
2018-08-03T07:41:32.654Z,31.10
2018-08-03T07:44:36.376Z,31.30
2018-08-03T07:47:40.062Z,30.50
2018-08-03T07:50:43.772Z,30.90
2018-08-03T07:53:47.415Z,30.70
2018-08-03T07:56:51.116Z,31.00
2018-08-03T07:59:54.874Z,31.10
2018-08-03T08:02:58.507Z,31.30
2018-08-03T08:09:08.227Z,31.30
2018-08-03T08:12:11.829Z,31.50
2018-08-03T08:15:15.497Z,31.80
2018-08-03T08:18:19.073Z,31.50
2018-08-03T08:21:22.742Z,31.70
2018-08-03T08:24:26.377Z,31.30
2018-08-03T08:27:30.042Z,32.10
2018-08-03T08:30:33.640Z,31.20
2018-08-03T08:33:37.456Z,31.50
2018-08-03T08:36:41.053Z,30.50
2018-08-03T08:39:44.811Z,30.00
2018-08-03T08:42:48.469Z,30.80
2018-08-03T08:45:52.099Z,30.70
2018-08-03T08:48:55.735Z,31.40
2018-08-03T08:51:59.397Z,31.30
2018-08-03T08:55:03.013Z,31.40
2018-08-03T08:58:06.896Z,31.60
2018-08-03T09:01:10.547Z,31.70
2018-08-03T09:04:14.127Z,32.00
2018-08-03T09:07:17.777Z,32.40
2018-08-03T09:10:21.422Z,31.80
2018-08-03T09:13:25.026Z,30.90
2018-08-03T09:16:28.660Z,30.80
2018-08-03T09:19:32.270Z,31.40
2018-08-03T09:22:35.897Z,31.70
2018-08-03T09:25:39.548Z,32.00
2018-08-03T09:31:46.782Z,31.40
2018-08-03T09:34:50.714Z,31.30
2018-08-03T09:37:54.347Z,31.30
2018-08-03T09:40:58.073Z,31.80
2018-08-03T09:44:01.684Z,31.60
2018-08-03T09:47:05.327Z,31.30
2018-08-03T09:50:08.949Z,31.70
2018-08-03T09:53:12.614Z,31.70
2018-08-03T09:56:16.446Z,31.40
2018-08-03T09:59:20.085Z,31.20
2018-08-03T10:02:23.734Z,31.40
2018-08-03T10:05:27.384Z,31.30
2018-08-03T10:08:31.008Z,31.30
2018-08-03T10:14:38.043Z,31.60
2018-08-03T10:17:41.719Z,31.50
2018-08-03T10:20:45.449Z,31.30
2018-08-03T10:23:49.083Z,31.50
2018-08-03T10:26:52.706Z,31.80
2018-08-03T10:33:00.654Z,31.60
2018-08-03T10:36:04.299Z,31.50
2018-08-03T10:39:09.218Z,31.00
2018-08-03T10:42:12.922Z,31.20
2018-08-03T10:45:16.562Z,31.00
2018-08-03T10:51:23.619Z,31.40
2018-08-03T10:54:27.555Z,31.70
2018-08-03T10:57:31.277Z,31.60
2018-08-03T11:00:35.007Z,31.90
2018-08-03T11:03:38.593Z,32.20
2018-08-03T11:06:42.215Z,32.40
2018-08-03T11:09:45.944Z,32.30
2018-08-03T11:12:50.572Z,32.10
2018-08-03T11:15:54.227Z,31.90
2018-08-03T11:22:01.436Z,31.70
2018-08-03T11:25:05.313Z,31.60
2018-08-03T11:28:08.978Z,31.40
2018-08-03T11:31:12.614Z,31.30
2018-08-03T11:34:16.234Z,31.20
2018-08-03T11:40:23.245Z,30.90
2018-08-03T11:43:26.861Z,31.00
2018-08-03T11:46:30.498Z,30.90
2018-08-03T11:49:34.303Z,31.10
2018-08-03T11:52:37.972Z,31.10
2018-08-03T11:55:41.585Z,31.10
2018-08-03T11:58:45.327Z,30.90
2018-08-03T12:01:48.990Z,30.70
2018-08-03T12:04:52.598Z,30.90
2018-08-03T12:07:56.301Z,30.90
2018-08-03T12:11:00.066Z,30.90
2018-08-03T12:14:03.986Z,30.90
2018-08-03T12:17:07.619Z,30.80
2018-08-03T12:20:11.234Z,30.80
2018-08-03T12:23:15.023Z,30.70
2018-08-03T12:26:18.617Z,31.00
2018-08-03T12:29:22.342Z,31.10
2018-08-03T12:32:25.952Z,31.10
2018-08-03T12:35:29.635Z,31.10
2018-08-03T12:38:33.258Z,30.90
2018-08-03T12:41:37.031Z,31.20
2018-08-03T12:44:40.665Z,31.30
2018-08-03T12:47:44.311Z,31.30
2018-08-03T12:50:48.150Z,31.30
2018-08-03T12:53:51.762Z,31.40
2018-08-03T12:56:55.564Z,31.40
2018-08-03T12:59:59.460Z,31.30
2018-08-03T13:03:03.076Z,31.30
2018-08-03T13:06:06.786Z,31.30
2018-08-03T13:09:10.643Z,31.30
2018-08-03T13:12:14.551Z,31.10
2018-08-03T13:15:18.159Z,31.10
2018-08-03T13:18:21.814Z,31.20
2018-08-03T13:21:33.674Z,31.30
2018-08-03T13:24:37.482Z,31.30
2018-08-03T13:27:41.093Z,31.20
2018-08-03T13:30:44.765Z,31.20
2018-08-03T13:33:48.747Z,31.30
2018-08-03T13:36:52.387Z,31.30
2018-08-03T13:39:56.126Z,31.30
2018-08-03T13:42:59.713Z,31.30
2018-08-03T13:46:03.370Z,31.40
2018-08-03T13:52:10.386Z,31.60
2018-08-03T13:55:14.036Z,31.50
2018-08-03T13:58:17.725Z,31.50
2018-08-03T14:01:33.164Z,31.40
2018-08-03T14:04:36.753Z,31.50
2018-08-03T14:07:40.381Z,31.40
2018-08-03T14:10:44.080Z,31.40
2018-08-03T14:13:48.058Z,31.30
2018-08-03T14:16:51.678Z,31.30
2018-08-03T14:19:55.386Z,31.40
2018-08-03T14:22:58.998Z,31.60
2018-08-03T14:26:02.702Z,31.70
2018-08-03T14:29:06.325Z,31.70
2018-08-03T14:32:09.962Z,31.50
2018-08-03T14:35:13.591Z,31.50
2018-08-03T14:41:20.675Z,31.40
2018-08-03T14:44:24.313Z,31.60
2018-08-03T14:47:27.937Z,31.50
2018-08-03T14:50:31.886Z,31.40
2018-08-03T14:53:35.517Z,31.40
2018-08-03T14:56:39.194Z,31.50
2018-08-03T14:59:42.760Z,31.50
2018-08-03T15:02:46.379Z,31.50
2018-08-03T15:05:50.080Z,31.40
2018-08-03T15:08:53.699Z,31.50
2018-08-03T15:11:57.335Z,31.50
2018-08-03T15:15:01.035Z,31.50
2018-08-03T15:18:04.674Z,31.50
2018-08-03T15:21:08.335Z,31.40
2018-08-03T15:24:11.968Z,31.50
2018-08-03T15:27:15.589Z,31.40
2018-08-03T15:30:19.272Z,31.60
2018-08-03T15:33:23.099Z,31.60
2018-08-03T15:36:26.746Z,31.60
2018-08-03T15:42:33.755Z,31.40
2018-08-03T15:45:37.406Z,31.40
2018-08-03T15:48:41.056Z,31.40
2018-08-03T15:51:44.688Z,31.40
2018-08-03T15:54:48.477Z,31.60
2018-08-03T15:57:52.113Z,31.50
2018-08-03T16:00:55.756Z,31.40
2018-08-03T16:07:02.796Z,31.40
2018-08-03T16:10:06.589Z,31.40
2018-08-03T16:13:10.280Z,31.40
2018-08-03T16:16:13.904Z,31.40
2018-08-03T16:19:17.559Z,31.30
2018-08-03T16:22:21.434Z,31.30
2018-08-03T16:25:25.071Z,31.40
2018-08-03T16:28:28.698Z,31.40
2018-08-03T16:31:32.345Z,31.30
2018-08-03T16:37:39.377Z,31.30
2018-08-03T16:40:42.986Z,31.20
2018-08-03T16:46:49.992Z,31.10
2018-08-03T16:49:53.792Z,31.10
2018-08-03T16:56:00.747Z,31.00
2018-08-03T16:59:04.359Z,30.90
2018-08-03T17:02:08.001Z,30.90
2018-08-03T17:08:14.987Z,30.80
2018-08-03T17:11:18.620Z,30.80
2018-08-03T17:14:22.544Z,30.80
2018-08-03T17:17:26.202Z,30.70
2018-08-03T17:20:30.129Z,30.70
2018-08-03T17:23:33.764Z,30.70
2018-08-03T17:26:37.526Z,30.60
2018-08-03T17:29:41.144Z,30.60
2018-08-03T17:32:44.766Z,30.50
2018-08-03T17:35:48.401Z,30.50
2018-08-03T17:38:52.136Z,30.40
2018-08-03T17:41:55.729Z,30.40
2018-08-03T17:48:02.705Z,30.30
2018-08-03T17:51:06.313Z,30.30
2018-08-03T17:54:09.955Z,30.20
2018-08-03T17:57:13.570Z,30.10
2018-08-03T18:00:17.871Z,30.10
2018-08-03T18:03:21.930Z,30.00
2018-08-03T18:06:25.578Z,29.80
2018-08-03T18:12:32.568Z,29.70
2018-08-03T18:18:39.763Z,29.60
2018-08-03T18:21:43.392Z,29.50
2018-08-03T18:24:47.028Z,29.40
2018-08-03T18:27:50.819Z,29.30
2018-08-03T18:30:54.465Z,29.20
2018-08-03T18:33:58.095Z,29.20
2018-08-03T18:37:01.717Z,29.00
2018-08-03T18:40:07.440Z,28.90
2018-08-03T18:43:11.052Z,28.80
2018-08-03T18:46:14.768Z,28.70
2018-08-03T18:49:18.438Z,28.60
2018-08-03T18:55:25.402Z,28.40
2018-08-03T18:58:29.049Z,28.30
2018-08-03T19:01:32.671Z,28.30
2018-08-03T19:04:36.320Z,28.20
2018-08-03T19:07:40.061Z,28.10
2018-08-03T19:10:43.642Z,28.00
2018-08-03T19:13:47.274Z,27.80
2018-08-03T19:16:50.963Z,27.80
2018-08-03T19:19:54.667Z,27.70
2018-08-03T19:22:58.407Z,27.60
2018-08-03T19:26:02.055Z,27.50
2018-08-03T19:29:05.658Z,27.40
2018-08-03T19:32:09.299Z,27.40
2018-08-03T19:35:12.937Z,27.30
2018-08-03T19:38:16.555Z,27.20
2018-08-03T19:41:20.437Z,27.20
2018-08-03T19:44:24.065Z,27.20
2018-08-03T19:47:27.682Z,27.10
2018-08-03T19:50:31.339Z,27.00
2018-08-03T19:53:35.010Z,27.00
2018-08-03T19:56:38.643Z,26.90
2018-08-03T19:59:42.313Z,26.80
2018-08-03T20:05:49.299Z,26.70
2018-08-03T20:11:56.330Z,26.80
2018-08-03T20:14:59.954Z,26.70
2018-08-03T20:18:03.569Z,26.60
2018-08-03T20:21:07.231Z,26.60
2018-08-03T20:27:20.904Z,26.50
2018-08-03T20:30:24.534Z,26.40
2018-08-03T20:33:28.165Z,26.40
2018-08-03T20:36:31.870Z,26.30
2018-08-03T20:39:35.578Z,26.30
2018-08-03T20:48:45.937Z,26.20
2018-08-03T20:51:49.640Z,26.10
2018-08-03T20:54:53.300Z,26.00
2018-08-03T20:57:56.966Z,25.90
2018-08-03T21:01:00.621Z,25.90
2018-08-03T21:04:04.245Z,25.80
2018-08-03T21:07:07.862Z,25.80
2018-08-03T21:10:11.530Z,25.70
2018-08-03T21:13:15.168Z,25.60
2018-08-03T21:16:18.795Z,25.50
2018-08-03T21:19:22.502Z,25.40
2018-08-03T21:22:26.144Z,25.50
2018-08-03T21:25:29.830Z,25.40
2018-08-03T21:28:34.120Z,25.40
2018-08-03T21:34:41.105Z,25.30
2018-08-03T21:37:44.727Z,25.30
2018-08-03T21:40:48.401Z,25.20
2018-08-03T21:43:52.166Z,25.10
2018-08-03T21:46:55.794Z,25.10
2018-08-03T21:49:59.463Z,25.10
2018-08-03T21:53:03.124Z,25.10
2018-08-03T22:02:13.596Z,25.00
2018-08-03T22:05:17.228Z,25.00
2018-08-03T22:11:24.253Z,24.90
2018-08-03T22:14:27.853Z,24.90
2018-08-03T22:17:31.492Z,24.80
2018-08-03T22:20:35.111Z,24.80
2018-08-03T22:23:38.744Z,24.70
2018-08-03T22:26:42.373Z,24.70
2018-08-03T22:29:46.008Z,24.70
2018-08-03T22:32:49.681Z,24.60
2018-08-03T22:35:53.307Z,24.50
2018-08-03T22:38:59.257Z,24.50
2018-08-03T22:42:02.906Z,24.50
2018-08-03T22:45:06.598Z,24.50
2018-08-03T22:48:10.211Z,24.40
2018-08-03T22:51:13.897Z,24.40
2018-08-03T22:54:17.820Z,24.40
2018-08-03T22:57:21.434Z,24.30
2018-08-03T23:00:25.057Z,24.30
2018-08-03T23:03:28.733Z,24.20
2018-08-03T23:09:35.680Z,24.30
2018-08-03T23:12:39.280Z,24.20
2018-08-03T23:15:42.915Z,24.30
2018-08-03T23:18:46.551Z,24.30
2018-08-03T23:21:50.158Z,24.20
2018-08-03T23:24:53.896Z,24.20
2018-08-03T23:27:57.692Z,24.20
2018-08-03T23:31:01.317Z,24.20
2018-08-03T23:34:04.933Z,24.10
2018-08-03T23:40:11.943Z,24.10
2018-08-03T23:43:15.574Z,24.00
2018-08-03T23:46:19.270Z,24.00
2018-08-03T23:49:22.987Z,23.90
2018-08-03T23:52:26.598Z,23.80
2018-08-03T23:55:30.234Z,23.70
2018-08-03T23:58:34.060Z,23.70
